Washington Depot, Connecticut
Current Conditions -  °F | °C
As of 2:50 PM on Wednesday 28 Jan 2015 (Local Time) from KOXC Reporting Station
Clear Clear  
Wind Chill: 10°   Ceiling: Unl
Heat Index: 25°   Visibility: 10mi
Dew Point:   Wind: 21mph
Humidity: 46%   Direction: 350°N
Pressure: 30.02"   Gusts: 26mph
Location:  41.63°N, 73.31°W
Report Text: KOXC 281950Z 35018G23KT 10SM SKC M04/M14 A3002
Loading
Personal Weather Stations






























Interactive Weather Map New forecast layout! Learn more

10-Day Weather Forecast

Advertisements
Track Severe Weather on mobile